Terminal Aerodrome Forecast
Issued by NWS Memphis, TN

Home | Current Version | Previous Version | Text Only | Print | Product List | Glossary On
Versions: 1 2 3 4 5 6 7 8 9 10 11 12 13 14 15 16
426
FTUS44 KMEG 270520
TAFJBR
TAF
KJBR 270520Z 2706/2806 32004KT P6SM SCT250
     FM271100 07003KT 4SM BR VCTS BKN050CB
     FM271400 10005KT P6SM VCTS BKN050CB
     FM271700 12006KT P6SM -TSRA OVC050CB
      TEMPO 2718/2722 4SM -TSRA OVC025CB
     FM272300 14005KT 4SM -TSRA BR OVC050CB
     FM280300 00000KT P6SM OVC250=

USA.gov is the U.S. government's official web portal to all federal, state and local government web resources and services.